Time;durP1;ratioP1;P1;durP2;ratioP2;P2;SDS_P1;SDS_P2;PMS_P1;PMS_P2;Temp;Humidity;BMP_temperature;BMP_pressure;BME280_temperature;BME280_humidity;BME280_pressure;Samples;Min_cycle;Max_cycle;Signal;HPM_P1;HPM_P2
2022/05/01 00:00:05;;;;;;;3.75;2.90;;;22.50;45.30;;;;;;4994370;28;20033;-67
2022/05/01 00:02:31;;;;;;;4.43;3.17;;;22.50;45.30;;;;;;4989064;28;20188;-67
2022/05/01 00:04:56;;;;;;;4.22;3.25;;;22.50;45.30;;;;;;4991666;28;20136;-67
2022/05/01 00:07:22;;;;;;;4.32;2.85;;;22.50;45.30;;;;;;4993427;28;20028;-65
2022/05/01 00:09:48;;;;;;;4.47;3.13;;;22.50;45.30;;;;;;4991360;28;20040;-66
2022/05/01 00:12:13;;;;;;;3.90;2.78;;;22.50;45.30;;;;;;4991693;28;20438;-65
2022/05/01 00:14:39;;;;;;;6.63;3.20;;;22.50;45.30;;;;;;4992097;28;20727;-65
2022/05/01 00:17:05;;;;;;;4.07;2.90;;;22.50;45.80;;;;;;4991243;28;20030;-67
2022/05/01 00:19:31;;;;;;;3.33;2.58;;;22.50;45.30;;;;;;4991919;28;20030;-67
2022/05/01 00:21:56;;;;;;;3.80;2.70;;;22.50;45.30;;;;;;4991196;28;20061;-65
2022/05/01 00:24:22;;;;;;;3.75;2.80;;;22.50;45.30;;;;;;4996305;28;20029;-67
2022/05/01 00:26:48;;;;;;;3.72;2.90;;;22.50;45.30;;;;;;4996724;28;20030;-67
2022/05/01 00:29:13;;;;;;;3.90;2.83;;;22.50;45.30;;;;;;4997925;28;20121;-64
2022/05/01 00:31:40;;;;;;;4.28;2.63;;;22.50;45.30;;;;;;5009382;28;20046;-67
2022/05/01 00:36:50;;;;;;;3.58;2.58;;;22.50;45.30;;;;;;4997790;28;20053;-65
2022/05/01 00:39:15;;;;;;;3.63;2.70;;;22.40;45.20;;;;;;4997484;28;20034;-65
2022/05/01 00:41:43;;;;;;;4.70;2.92;;;22.40;45.20;;;;;;4995747;28;20026;-67
2022/05/01 00:44:16;;;;;;;3.08;2.33;;;22.40;45.20;;;;;;4996276;28;20481;-68
2022/05/01 00:46:44;;;;;;;3.65;2.70;;;22.40;45.70;;;;;;4995740;28;20485;-67
2022/05/01 00:49:12;;;;;;;3.67;2.75;;;22.40;45.20;;;;;;4993966;28;20076;-66
2022/05/01 00:52:00;;;;;;;3.35;2.72;;;22.40;45.20;;;;;;4997773;28;20049;-67
2022/05/01 00:54:29;;;;;;;4.13;2.72;;;22.40;45.20;;;;;;4996068;28;20030;-67
2022/05/01 00:56:57;;;;;;;3.58;2.50;;;22.40;45.20;;;;;;4995949;28;20038;-66
2022/05/01 00:59:23;;;;;;;3.63;2.77;;;22.40;45.20;;;;;;4994034;28;20431;-65
2022/05/01 01:01:50;;;;;;;3.38;2.67;;;22.40;45.20;;;;;;4995091;28;20285;-67
2022/05/01 01:04:16;;;;;;;3.20;2.38;;;22.40;45.20;;;;;;4995504;28;20053;-67
2022/05/01 01:06:43;;;;;;;3.20;2.47;;;22.40;45.20;;;;;;4994388;28;20049;-67
2022/05/01 01:09:09;;;;;;;3.30;2.33;;;22.40;45.20;;;;;;4996912;28;20040;-65
2022/05/01 01:11:36;;;;;;;3.75;2.60;;;22.40;45.20;;;;;;4996270;28;20030;-67
2022/05/01 01:14:05;;;;;;;4.05;2.58;;;22.30;45.20;;;;;;4995741;28;20034;-66
2022/05/01 01:16:34;;;;;;;3.77;2.50;;;22.40;45.70;;;;;;4995056;28;20112;-65
2022/05/01 01:19:01;;;;;;;3.30;2.28;;;22.40;45.20;;;;;;4995294;28;20029;-66
2022/05/01 01:21:27;;;;;;;3.35;2.63;;;22.40;45.20;;;;;;4994618;28;20030;-65
2022/05/01 01:23:53;;;;;;;3.20;2.30;;;22.40;45.20;;;;;;4994602;28;21776;-65
2022/05/01 01:26:20;;;;;;;3.40;2.50;;;22.40;45.20;;;;;;4995792;28;20097;-66
2022/05/01 01:28:47;;;;;;;3.38;2.40;;;22.30;45.20;;;;;;4995936;28;20165;-67
2022/05/01 01:34:04;;;;;;;3.10;2.38;;;22.30;45.20;;;;;;4993124;28;20052;-66
2022/05/01 01:36:32;;;;;;;3.08;2.00;;;22.30;45.10;;;;;;4994757;28;20037;-66
2022/05/01 01:38:58;;;;;;;3.22;2.30;;;22.30;45.20;;;;;;4996765;28;20531;-67
2022/05/01 01:41:29;;;;;;;3.17;2.38;;;22.30;45.10;;;;;;4995125;28;20398;-67
2022/05/01 01:43:56;;;;;;;3.42;2.47;;;22.30;45.10;;;;;;4995705;28;20461;-66
2022/05/01 01:46:22;;;;;;;2.90;2.00;;;22.30;45.10;;;;;;4995859;28;20541;-66
2022/05/01 01:48:48;;;;;;;3.45;2.40;;;22.30;45.10;;;;;;4995476;28;20049;-65
2022/05/01 01:51:14;;;;;;;3.55;2.70;;;22.30;45.10;;;;;;4992797;28;20049;-65
2022/05/01 01:53:41;;;;;;;3.00;2.05;;;22.30;45.10;;;;;;4996029;28;20025;-63
2022/05/01 01:56:09;;;;;;;3.45;2.50;;;22.30;45.20;;;;;;4991991;28;20049;-66
2022/05/01 01:58:36;;;;;;;3.33;2.42;;;22.30;45.10;;;;;;4995161;28;20021;-67
2022/05/01 02:01:03;;;;;;;3.00;2.08;;;22.30;45.10;;;;;;4993218;28;20187;-66
2022/05/01 02:03:29;;;;;;;3.03;2.20;;;22.30;45.10;;;;;;4993575;28;20030;-64
2022/05/01 02:05:55;;;;;;;3.15;2.15;;;22.30;45.10;;;;;;4994541;28;20091;-65
2022/05/01 02:08:21;;;;;;;2.80;2.20;;;22.30;45.10;;;;;;4995779;28;20133;-65
2022/05/01 02:10:47;;;;;;;2.83;2.25;;;22.30;45.10;;;;;;4994496;28;20427;-64
2022/05/01 02:13:13;;;;;;;2.90;2.30;;;22.30;45.10;;;;;;4994284;28;20034;-65
2022/05/01 02:15:40;;;;;;;3.63;2.20;;;22.30;45.10;;;;;;4988277;28;20037;-67
2022/05/01 02:18:06;;;;;;;2.97;2.10;;;22.30;45.10;;;;;;4990240;28;20029;-66
2022/05/01 02:21:34;;;;;;;2.88;2.17;;;22.30;45.10;;;;;;4994226;28;20102;-64
2022/05/01 02:23:20;;;;;;;3.10;2.00;;;22.30;45.10;;;;;;4994994;28;20140;-67
2022/05/01 02:25:46;;;;;;;3.08;2.17;;;22.20;45.00;;;;;;4994842;28;20096;-65
2022/05/01 02:28:12;;;;;;;2.63;2.10;;;22.20;45.00;;;;;;4995376;28;20489;-66
2022/05/01 02:30:38;;;;;;;3.22;2.20;;;22.20;45.00;;;;;;4992690;28;20042;-64
2022/05/01 02:33:06;;;;;;;3.78;2.17;;;22.20;45.00;;;;;;4993341;28;20516;-66
2022/05/01 02:35:32;;;;;;;3.03;2.10;;;22.20;45.00;;;;;;4993194;28;20029;-65
2022/05/01 02:37:59;;;;;;;2.75;2.10;;;22.20;45.00;;;;;;4994834;28;20050;-64
2022/05/01 02:40:25;;;;;;;2.90;2.03;;;22.20;45.00;;;;;;4994597;28;20069;-65
2022/05/01 02:42:51;;;;;;;2.83;2.00;;;22.20;45.00;;;;;;4995740;28;20065;-67
2022/05/01 02:45:17;;;;;;;2.92;2.20;;;22.20;45.00;;;;;;4993719;28;20399;-65
2022/05/01 02:47:43;;;;;;;2.90;2.20;;;22.20;45.00;;;;;;4992610;28;20030;-67
2022/05/01 02:50:09;;;;;;;3.10;1.92;;;22.20;45.00;;;;;;5006064;28;20030;-65
2022/05/01 02:52:34;;;;;;;2.85;2.10;;;22.20;45.00;;;;;;5010742;28;20079;-67
2022/05/01 02:55:00;;;;;;;3.25;2.10;;;22.20;45.00;;;;;;4995343;28;20045;-67
2022/05/01 02:57:25;;;;;;;2.60;2.00;;;22.20;45.00;;;;;;4994402;28;20018;-66
2022/05/01 02:59:51;;;;;;;2.95;1.83;;;22.10;45.00;;;;;;4991718;28;20116;-68
2022/05/01 03:02:17;;;;;;;2.70;2.10;;;22.20;45.00;;;;;;4994434;28;20116;-64
2022/05/01 03:04:43;;;;;;;3.17;1.90;;;22.20;45.00;;;;;;4993316;28;20057;-66
2022/05/01 03:07:09;;;;;;;2.53;2.00;;;22.10;45.00;;;;;;4995416;28;20088;-65
2022/05/01 03:09:34;;;;;;;2.38;1.80;;;22.20;45.00;;;;;;4993500;28;21307;-65
2022/05/01 03:12:01;;;;;;;2.95;1.70;;;22.10;45.00;;;;;;4994256;28;20026;-67
2022/05/01 03:14:26;;;;;;;3.13;2.00;;;22.10;45.00;;;;;;4984392;28;20026;-64
2022/05/01 03:16:52;;;;;;;2.58;2.00;;;22.10;45.00;;;;;;4993372;28;20042;-66
2022/05/01 03:22:11;;;;;;;3.10;1.80;;;22.10;45.00;;;;;;4992504;28;20134;-66
2022/05/01 03:24:38;;;;;;;2.75;1.90;;;22.10;44.90;;;;;;4994993;28;20034;-65
2022/05/01 03:27:05;;;;;;;2.60;1.98;;;22.10;44.90;;;;;;4995035;28;20026;-65
2022/05/01 03:29:30;;;;;;;2.85;2.00;;;22.10;44.90;;;;;;4993416;28;20029;-67
2022/05/01 03:31:56;;;;;;;2.50;2.00;;;22.10;44.90;;;;;;4993700;28;20041;-64
2022/05/01 03:34:23;;;;;;;2.38;1.80;;;22.10;44.90;;;;;;4993390;28;20049;-66
2022/05/01 03:36:49;;;;;;;2.38;1.70;;;22.10;45.00;;;;;;4992764;28;20041;-65
2022/05/01 03:39:16;;;;;;;2.45;1.70;;;22.10;45.00;;;;;;4993914;28;20107;-65
2022/05/01 03:41:41;;;;;;;2.42;1.88;;;22.10;44.90;;;;;;4991827;28;20034;-66
2022/05/01 03:44:07;;;;;;;2.70;1.90;;;22.10;44.90;;;;;;4994887;28;20088;-67
2022/05/01 03:46:36;;;;;;;2.40;1.70;;;22.10;44.90;;;;;;4990432;28;20121;-66
2022/05/01 03:49:02;;;;;;;2.75;1.80;;;22.10;45.00;;;;;;4991323;28;20044;-67
2022/05/01 03:51:31;;;;;;;2.17;1.60;;;22.10;44.90;;;;;;4992506;28;20025;-68
2022/05/01 03:53:58;;;;;;;2.33;1.60;;;22.10;45.00;;;;;;4992552;28;20022;-67
2022/05/01 03:56:24;;;;;;;2.30;1.70;;;22.10;44.90;;;;;;4992943;28;20485;-65
2022/05/01 03:58:50;;;;;;;2.75;1.67;;;22.10;44.90;;;;;;4992909;28;20093;-65
2022/05/01 04:01:16;;;;;;;2.33;1.70;;;22.10;44.90;;;;;;4981300;28;20691;-67
2022/05/01 04:03:41;;;;;;;2.97;1.83;;;22.10;44.90;;;;;;4991299;28;20030;-67
2022/05/01 04:06:07;;;;;;;2.42;1.65;;;22.10;44.90;;;;;;4992410;28;20034;-67
2022/05/01 04:08:32;;;;;;;2.38;1.70;;;22.10;44.90;;;;;;4993729;28;20462;-64
2022/05/01 04:11:00;;;;;;;2.50;1.80;;;22.00;44.90;;;;;;4992404;28;21156;-66
2022/05/01 04:13:26;;;;;;;1.95;1.42;;;22.00;44.90;;;;;;4993646;28;20032;-64
2022/05/01 04:15:51;;;;;;;2.22;1.70;;;22.00;44.80;;;;;;4991179;28;20031;-67
2022/05/01 04:18:18;;;;;;;2.63;1.70;;;22.00;44.80;;;;;;4990270;28;20100;-65
2022/05/01 04:20:45;;;;;;;2.53;1.80;;;22.00;44.80;;;;;;4992618;28;20038;-67
2022/05/01 04:23:10;;;;;;;2.47;1.65;;;22.00;44.90;;;;;;4994123;28;20029;-65
2022/05/01 04:25:36;;;;;;;2.60;2.00;;;22.00;44.80;;;;;;4993081;28;20041;-67
2022/05/01 04:28:05;;;;;;;2.40;1.70;;;22.10;44.90;;;;;;4993895;28;20038;-67
2022/05/01 04:30:31;;;;;;;2.13;1.60;;;22.00;44.80;;;;;;4990218;28;20034;-65
2022/05/01 04:32:59;;;;;;;2.30;1.70;;;22.00;44.80;;;;;;4993044;28;20038;-66
2022/05/01 04:35:29;;;;;;;2.40;1.60;;;22.00;44.80;;;;;;4992443;28;20038;-66
2022/05/01 04:37:59;;;;;;;2.60;1.70;;;22.00;44.80;;;;;;4994723;28;20033;-65
2022/05/01 04:40:33;;;;;;;;;;;22.00;44.80;;;;;;4994663;28;20037;-67
2022/05/01 04:43:18;;;;;;;2.13;1.40;;;22.00;44.80;;;;;;4991486;28;19996;-66
2022/05/01 04:45:49;;;;;;;2.13;1.58;;;22.00;44.80;;;;;;4989869;28;20116;-65
2022/05/01 04:48:17;;;;;;;2.42;1.83;;;22.00;44.80;;;;;;4990606;28;20061;-65
2022/05/01 04:50:44;;;;;;;2.40;1.80;;;22.00;44.80;;;;;;4991008;28;20096;-67
2022/05/01 04:53:12;;;;;;;2.15;1.60;;;22.00;45.30;;;;;;4992269;28;20026;-67
2022/05/01 04:55:38;;;;;;;2.20;1.52;;;22.00;44.80;;;;;;4992897;28;20104;-66
2022/05/01 04:58:05;;;;;;;2.15;1.58;;;22.00;44.80;;;;;;4994065;28;20091;-67
2022/05/01 05:00:31;;;;;;;2.10;1.65;;;22.00;44.90;;;;;;4991386;28;20030;-64
2022/05/01 05:02:57;;;;;;;2.88;1.58;;;22.00;44.80;;;;;;4991078;28;20038;-67
2022/05/01 05:05:24;;;;;;;2.08;1.52;;;22.00;44.80;;;;;;4988751;28;20034;-67
2022/05/01 05:07:50;;;;;;;1.95;1.40;;;22.00;44.80;;;;;;4993123;28;20478;-65
2022/05/01 05:10:16;;;;;;;2.30;1.60;;;22.00;44.80;;;;;;4995093;28;20033;-67
2022/05/01 05:12:43;;;;;;;1.90;1.50;;;22.00;44.80;;;;;;4996343;28;20382;-67
2022/05/01 05:15:11;;;;;;;2.17;1.30;;;22.00;44.80;;;;;;5009783;28;20129;-66
2022/05/01 05:17:38;;;;;;;2.28;1.67;;;22.00;44.80;;;;;;4994573;28;21435;-67
2022/05/01 05:20:05;;;;;;;1.80;1.40;;;22.00;44.90;;;;;;4994364;28;20473;-67
2022/05/01 05:22:31;;;;;;;1.88;1.40;;;22.00;44.80;;;;;;4995498;28;20080;-64
2022/05/01 05:24:57;;;;;;;2.15;1.50;;;22.00;44.90;;;;;;4995715;28;20037;-66
2022/05/01 05:27:25;;;;;;;1.95;1.55;;;22.00;44.80;;;;;;4999286;28;20331;-67
2022/05/01 05:29:53;;;;;;;2.00;1.42;;;21.90;44.80;;;;;;4994596;28;20037;-67
2022/05/01 05:32:19;;;;;;;1.60;1.30;;;22.00;44.80;;;;;;4993691;28;20113;-65
2022/05/01 05:34:45;;;;;;;1.83;1.38;;;21.90;45.30;;;;;;4992268;28;20022;-66
2022/05/01 05:37:10;;;;;;;2.90;1.98;;;21.90;44.80;;;;;;4992196;28;20030;-67
2022/05/01 05:39:36;;;;;;;2.03;1.42;;;21.90;44.80;;;;;;4982989;28;20122;-66
2022/05/01 05:42:02;;;;;;;2.30;1.60;;;22.00;44.80;;;;;;4982257;28;20033;-65
2022/05/01 05:44:27;;;;;;;2.25;1.60;;;21.90;44.80;;;;;;4994192;28;20034;-64
2022/05/01 05:46:53;;;;;;;1.85;1.40;;;21.90;44.80;;;;;;4986037;28;20124;-65
2022/05/01 05:49:19;;;;;;;1.67;1.25;;;21.90;44.80;;;;;;4991092;28;20100;-66
2022/05/01 05:51:44;;;;;;;1.85;1.25;;;21.90;44.70;;;;;;4994720;28;20022;-67
2022/05/01 05:54:10;;;;;;;1.85;1.38;;;21.90;44.80;;;;;;4997302;28;20088;-66
2022/05/01 05:56:35;;;;;;;1.98;1.40;;;21.90;44.70;;;;;;4994368;28;20026;-64
2022/05/01 05:59:01;;;;;;;1.77;1.30;;;21.90;44.70;;;;;;4992801;28;20033;-67
2022/05/01 06:01:26;;;;;;;2.00;1.30;;;21.90;44.70;;;;;;4993399;28;20030;-64
2022/05/01 06:03:52;;;;;;;1.67;1.23;;;21.90;44.80;;;;;;4993667;28;20026;-65
2022/05/01 06:06:18;;;;;;;1.50;1.23;;;21.90;44.70;;;;;;4992364;28;20105;-64
2022/05/01 06:08:44;;;;;;;2.03;1.30;;;21.90;44.80;;;;;;4992193;28;20034;-67
2022/05/01 06:11:10;;;;;;;1.85;1.30;;;21.90;44.80;;;;;;4991572;28;20529;-65
2022/05/01 06:13:36;;;;;;;2.00;1.30;;;21.90;44.80;;;;;;4994637;28;20026;-67
2022/05/01 06:16:01;;;;;;;1.90;1.30;;;21.90;44.80;;;;;;4990076;28;20029;-65
2022/05/01 06:18:27;;;;;;;1.70;1.30;;;21.90;44.80;;;;;;4988801;28;20104;-65
2022/05/01 06:20:53;;;;;;;1.92;1.40;;;21.90;44.80;;;;;;4994102;28;20073;-65
2022/05/01 06:23:20;;;;;;;1.92;1.20;;;21.90;44.80;;;;;;4993285;28;20106;-67
2022/05/01 06:25:46;;;;;;;1.70;1.33;;;21.90;44.80;;;;;;4993146;28;20022;-66
2022/05/01 06:28:15;;;;;;;2.10;1.60;;;21.90;44.80;;;;;;4995600;28;20339;-66
2022/05/01 06:30:45;;;;;;;2.20;1.38;;;21.90;44.80;;;;;;4991726;28;20567;-64
2022/05/01 06:33:16;;;;;;;1.70;1.33;;;21.90;44.80;;;;;;4991285;28;20029;-67
2022/05/01 06:35:48;;;;;;;1.90;1.30;;;21.90;44.80;;;;;;4993661;28;20044;-65
2022/05/01 06:38:14;;;;;;;1.50;1.20;;;21.90;44.70;;;;;;4994638;28;20044;-66
2022/05/01 06:40:42;;;;;;;1.75;1.20;;;21.90;44.70;;;;;;4994011;28;20413;-67
2022/05/01 06:43:09;;;;;;;1.92;1.33;;;21.90;44.80;;;;;;4993592;28;20037;-63
2022/05/01 06:45:35;;;;;;;1.60;1.25;;;21.90;44.80;;;;;;4993324;28;20025;-67
2022/05/01 06:48:03;;;;;;;1.88;1.30;;;21.90;44.80;;;;;;4991773;28;20053;-67
2022/05/01 06:50:30;;;;;;;1.58;1.20;;;21.90;44.80;;;;;;4992079;28;20041;-65
2022/05/01 06:52:56;;;;;;;1.60;1.15;;;21.80;44.70;;;;;;4994990;28;20030;-68
2022/05/01 06:55:25;;;;;;;1.60;1.25;;;21.90;45.30;;;;;;4993057;28;20021;-67
2022/05/01 06:57:54;;;;;;;1.70;1.30;;;21.90;44.80;;;;;;4995626;28;20033;-66
2022/05/01 07:00:21;;;;;;;1.55;1.20;;;21.80;44.70;;;;;;4993098;28;20037;-66
2022/05/01 07:02:48;;;;;;;1.63;1.15;;;21.80;44.70;;;;;;4992791;28;20417;-65
2022/05/01 07:05:13;;;;;;;1.95;1.20;;;21.80;44.70;;;;;;4990975;28;20033;-68
2022/05/01 07:07:39;;;;;;;1.92;1.38;;;21.80;44.70;;;;;;4994145;28;20029;-68
2022/05/01 07:10:06;;;;;;;2.13;1.40;;;21.80;44.80;;;;;;4991788;28;20116;-65
2022/05/01 07:12:32;;;;;;;1.58;1.10;;;21.90;44.80;;;;;;4993547;28;20117;-64
2022/05/01 07:14:58;;;;;;;1.50;1.08;;;21.90;44.80;;;;;;4991093;28;20136;-67
2022/05/01 07:17:23;;;;;;;1.60;1.10;;;21.80;45.30;;;;;;4993508;28;20088;-65
2022/05/01 07:19:49;;;;;;;1.80;1.27;;;21.80;44.80;;;;;;4991309;28;21346;-67
2022/05/01 07:22:16;;;;;;;1.63;1.20;;;21.80;44.80;;;;;;4994782;28;20040;-66
2022/05/01 07:24:42;;;;;;;1.60;1.10;;;21.80;44.80;;;;;;4992453;28;20030;-67
2022/05/01 07:27:08;;;;;;;1.73;1.17;;;21.80;44.80;;;;;;4991620;28;20115;-66
2022/05/01 07:29:34;;;;;;;1.40;1.10;;;21.80;44.80;;;;;;4991479;28;20041;-67
2022/05/01 07:31:59;;;;;;;1.90;1.40;;;21.80;44.80;;;;;;4991332;28;20033;-67
2022/05/01 07:34:25;;;;;;;1.70;1.20;;;21.80;44.80;;;;;;4988592;28;20026;-64
2022/05/01 07:36:51;;;;;;;1.85;1.30;;;21.80;44.80;;;;;;4990479;28;20040;-65
2022/05/01 07:39:16;;;;;;;2.08;1.40;;;21.80;44.80;;;;;;4991200;28;20108;-66
2022/05/01 07:41:42;;;;;;;1.60;1.20;;;21.80;44.80;;;;;;4996375;28;20489;-67
2022/05/01 07:44:11;;;;;;;1.60;1.20;;;21.80;45.40;;;;;;4993155;28;20751;-65
2022/05/01 07:46:38;;;;;;;1.38;1.20;;;21.80;44.90;;;;;;4990917;28;20347;-64
2022/05/01 07:49:04;;;;;;;1.85;1.20;;;21.80;44.90;;;;;;4991771;28;20157;-66
2022/05/01 07:51:30;;;;;;;1.50;1.17;;;21.80;44.90;;;;;;4991540;28;20037;-67
2022/05/01 07:53:58;;;;;;;1.67;1.25;;;21.80;44.90;;;;;;4993354;28;20037;-64
2022/05/01 07:56:25;;;;;;;1.75;1.30;;;21.80;44.90;;;;;;4991136;28;20049;-67
2022/05/01 07:58:50;;;;;;;1.25;1.10;;;21.80;44.90;;;;;;4989803;28;20184;-65
2022/05/01 08:01:16;;;;;;;1.83;1.27;;;21.80;44.90;;;;;;4989680;28;20569;-64
2022/05/01 08:06:26;;;;;;;1.40;1.10;;;21.80;44.90;;;;;;4990126;28;20032;-66
2022/05/01 08:08:52;;;;;;;2.75;1.35;;;21.80;44.90;;;;;;4993487;28;20030;-67
2022/05/01 08:11:17;;;;;;;1.63;1.20;;;21.80;44.90;;;;;;5007713;28;20029;-67
2022/05/01 08:13:43;;;;;;;1.70;1.27;;;21.80;44.90;;;;;;4988838;28;20040;-65
2022/05/01 08:16:08;;;;;;;1.65;1.20;;;21.80;44.90;;;;;;4990367;28;20036;-64
2022/05/01 08:21:21;;;;;;;1.80;1.40;;;21.80;45.00;;;;;;4989886;28;20064;-65
2022/05/01 08:23:47;;;;;;;1.77;1.30;;;21.80;44.90;;;;;;4991224;28;20030;-66
2022/05/01 08:26:13;;;;;;;1.90;1.40;;;21.80;44.90;;;;;;4991342;28;20034;-67
2022/05/01 08:28:41;;;;;;;2.00;1.40;;;21.70;44.90;;;;;;4991297;28;20040;-65
2022/05/01 08:31:08;;;;;;;1.67;1.20;;;21.80;45.50;;;;;;4991020;28;20104;-67
2022/05/01 08:33:35;;;;;;;1.60;1.20;;;21.70;44.90;;;;;;4979753;28;20351;-66
2022/05/01 08:36:03;;;;;;;1.58;1.23;;;21.70;44.90;;;;;;4988013;28;20486;-66
2022/05/01 08:38:29;;;;;;;1.80;1.40;;;21.70;45.00;;;;;;4993009;28;20026;-66
2022/05/01 08:40:55;;;;;;;2.30;1.30;;;21.80;45.00;;;;;;4991328;28;20034;-65
2022/05/01 08:43:23;;;;;;;1.83;1.30;;;21.70;44.90;;;;;;5007818;28;20104;-67
2022/05/01 08:46:26;;;;;;;2.35;1.60;;;21.80;45.00;;;;;;4992879;28;20045;-65
2022/05/01 08:49:06;;;;;;;1.65;1.25;;;21.70;45.00;;;;;;4993633;28;20034;-64
2022/05/01 08:51:32;;;;;;;;;;;21.70;45.00;;;;;;5010078;28;20030;-66
2022/05/01 08:53:58;;;;;;;1.80;1.30;;;21.70;45.00;;;;;;4995480;28;19909;-67
2022/05/01 08:56:25;;;;;;;2.08;1.30;;;21.70;45.00;;;;;;4993760;28;20029;-65
2022/05/01 08:58:51;;;;;;;2.60;1.30;;;21.70;45.00;;;;;;4994970;28;20307;-65
2022/05/01 09:01:17;;;;;;;1.80;1.20;;;21.70;45.00;;;;;;4993827;28;20071;-67
2022/05/01 09:03:46;;;;;;;1.67;1.20;;;21.70;45.00;;;;;;4995606;28;20576;-65
2022/05/01 09:06:12;;;;;;;2.10;1.30;;;21.80;45.00;;;;;;4991127;28;20327;-64
2022/05/01 09:08:40;;;;;;;2.35;1.40;;;21.70;45.00;;;;;;4993450;28;20038;-67
2022/05/01 09:13:50;;;;;;;2.10;1.30;;;21.70;45.00;;;;;;4997814;28;20037;-67
2022/05/01 09:16:16;;;;;;;2.03;1.30;;;21.70;45.00;;;;;;4993847;28;20026;-67
2022/05/01 09:18:45;;;;;;;1.92;1.20;;;21.70;45.00;;;;;;4993868;28;20034;-65
2022/05/01 09:21:12;;;;;;;1.65;1.30;;;21.70;45.00;;;;;;4991825;28;20040;-64
2022/05/01 09:23:43;;;;;;;1.77;1.30;;;21.80;45.10;;;;;;5009402;28;20104;-67
2022/05/01 09:26:10;;;;;;;1.88;1.30;;;21.80;45.10;;;;;;4995934;28;20037;-66
2022/05/01 09:28:52;;;;;;;2.45;1.15;;;21.70;45.00;;;;;;4996148;28;20041;-67
2022/05/01 09:31:45;;;;;;;1.90;1.30;;;21.70;45.00;;;;;;5002462;28;20431;-67
2022/05/01 09:34:28;;;;;;;2.10;1.30;;;21.70;45.00;;;;;;5006543;28;20026;-65
2022/05/01 09:36:55;;;;;;;1.33;1.02;;;21.70;45.10;;;;;;4989157;28;20030;-67
2022/05/01 09:39:23;;;;;;;2.08;1.33;;;21.70;45.10;;;;;;4995155;28;20493;-67
2022/05/01 09:41:50;;;;;;;1.73;1.17;;;21.70;45.00;;;;;;4993630;28;20053;-67
2022/05/01 09:44:17;;;;;;;2.67;1.40;;;21.70;45.10;;;;;;4997003;28;20030;-65
2022/05/01 09:46:45;;;;;;;1.85;1.30;;;21.70;45.10;;;;;;4993664;28;20037;-67
2022/05/01 09:49:13;;;;;;;2.10;1.38;;;21.70;45.10;;;;;;4992671;28;20038;-66
2022/05/01 09:51:46;;;;;;;1.88;1.30;;;21.70;45.10;;;;;;4994733;28;20124;-64
2022/05/01 09:54:22;;;;;;;1.63;1.20;;;21.70;45.10;;;;;;4993563;28;20026;-66
2022/05/01 09:56:58;;;;;;;2.85;1.40;;;21.70;45.10;;;;;;4993201;28;20033;-66
2022/05/01 09:59:26;;;;;;;1.98;1.30;;;21.70;45.10;;;;;;4992975;28;20032;-65
2022/05/01 10:02:01;;;;;;;2.08;1.40;;;21.70;45.10;;;;;;4992737;28;20037;-65
2022/05/01 10:04:27;;;;;;;2.33;1.30;;;21.70;45.10;;;;;;4987163;28;20033;-64
2022/05/01 10:06:55;;;;;;;2.53;1.48;;;21.70;45.20;;;;;;4994851;28;20041;-64
2022/05/01 10:09:26;;;;;;;2.00;1.25;;;21.70;45.20;;;;;;4994528;28;20052;-64
2022/05/01 10:11:57;;;;;;;1.35;1.10;;;21.70;45.20;;;;;;4996013;28;20022;-64
2022/05/01 10:14:24;;;;;;;1.88;1.27;;;21.70;45.10;;;;;;4992813;28;20022;-66
2022/05/01 10:16:50;;;;;;;1.88;1.30;;;21.70;45.20;;;;;;4992840;28;20464;-66
2022/05/01 10:19:17;;;;;;;2.08;1.13;;;21.70;45.20;;;;;;4991351;28;20450;-66
2022/05/01 10:21:47;;;;;;;2.30;1.30;;;21.70;45.20;;;;;;4995139;28;21045;-67
2022/05/01 10:24:14;;;;;;;3.30;1.30;;;21.70;45.20;;;;;;5010502;28;20025;-67
2022/05/01 10:27:00;;;;;;;2.20;1.40;;;21.70;45.20;;;;;;4991181;28;20018;-66
2022/05/01 10:33:09;;;;;;;1.88;1.30;;;21.70;45.20;;;;;;4985371;28;20104;-67
2022/05/01 10:35:59;;;;;;;2.22;1.25;;;21.70;45.20;;;;;;4991531;28;20045;-67
2022/05/01 10:38:50;;;;;;;2.00;1.35;;;21.70;45.20;;;;;;4991072;28;20057;-65
2022/05/01 10:41:16;;;;;;;1.67;1.27;;;21.70;45.40;;;;;;4993255;28;20061;-67
2022/05/01 10:43:54;;;;;;;1.70;1.25;;;21.70;45.50;;;;;;4990831;28;20033;-68
2022/05/01 10:46:20;;;;;;;3.00;1.80;;;21.70;45.60;;;;;;4990307;28;20387;-66
2022/05/01 10:48:45;;;;;;;1.70;1.30;;;21.70;45.70;;;;;;4988205;28;20120;-64
2022/05/01 10:51:36;;;;;;;2.20;1.35;;;21.70;45.80;;;;;;4992258;28;20061;-64
2022/05/01 10:54:33;;;;;;;2.10;1.30;;;21.70;46.00;;;;;;4990973;28;20127;-64
2022/05/01 10:57:07;;;;;;;1.75;1.23;;;21.70;46.00;;;;;;4991943;28;20049;-65
2022/05/01 10:59:36;;;;;;;2.13;1.40;;;21.70;46.10;;;;;;4989874;28;20079;-67
2022/05/01 11:02:04;;;;;;;2.10;1.33;;;21.70;46.10;;;;;;4991487;28;20030;-66
2022/05/01 11:04:39;;;;;;;1.77;1.30;;;21.70;46.10;;;;;;4988772;28;20033;-66
2022/05/01 11:07:05;;;;;;;2.05;1.25;;;21.70;46.10;;;;;;4988737;28;20501;-65
2022/05/01 11:09:36;;;;;;;2.33;1.58;;;21.70;46.20;;;;;;4988348;28;20022;-64
2022/05/01 11:12:04;;;;;;;3.13;1.35;;;21.70;47.00;;;;;;4991437;28;20064;-65
2022/05/01 11:14:35;;;;;;;2.40;1.20;;;21.70;46.50;;;;;;4991545;28;20124;-67
2022/05/01 11:17:04;;;;;;;1.65;1.20;;;21.70;46.50;;;;;;4989841;28;20062;-66
2022/05/01 11:19:34;;;;;;;2.63;1.30;;;21.70;46.60;;;;;;4984448;28;20034;-67
2022/05/01 11:22:07;;;;;;;2.47;1.40;;;21.70;46.80;;;;;;4989969;28;20398;-65
2022/05/01 11:24:43;;;;;;;2.42;1.30;;;21.70;46.80;;;;;;4977401;28;20018;-67
2022/05/01 11:27:12;;;;;;;3.33;1.50;;;21.70;46.90;;;;;;4986566;28;20029;-67
2022/05/01 11:29:38;;;;;;;;;;;21.70;47.10;;;;;;4990653;28;20057;-67
2022/05/01 11:32:21;;;;;;;3.65;1.50;;;21.70;47.10;;;;;;4990352;28;20009;-67
2022/05/01 11:34:51;;;;;;;2.22;1.60;;;21.70;47.00;;;;;;4985092;28;20410;-66
2022/05/01 11:37:18;;;;;;;2.30;1.40;;;21.70;47.00;;;;;;4991709;28;20378;-67
2022/05/01 11:39:49;;;;;;;2.17;1.38;;;21.70;47.00;;;;;;4989336;28;20123;-68
2022/05/01 11:42:24;;;;;;;1.80;1.30;;;21.80;47.00;;;;;;4992074;28;20034;-64
2022/05/01 11:44:50;;;;;;;2.60;1.40;;;21.80;47.00;;;;;;4988492;28;20053;-66
2022/05/01 11:47:19;;;;;;;1.75;1.40;;;21.70;47.00;;;;;;4992695;28;20083;-66
2022/05/01 11:49:45;;;;;;;3.33;1.67;;;21.70;47.10;;;;;;5001814;28;20038;-68
2022/05/01 11:52:16;;;;;;;2.40;1.60;;;21.70;47.20;;;;;;4989848;28;20281;-68
2022/05/01 11:54:50;;;;;;;2.00;1.25;;;21.80;47.70;;;;;;4990389;28;20030;-68
2022/05/01 12:03:05;;;;;;;3.30;1.25;;;21.80;47.10;;;;;;4986528;28;20305;-68
2022/05/01 12:05:40;;;;;;;2.45;1.20;;;21.80;47.30;;;;;;5004309;28;20061;-66
2022/05/01 12:08:06;;;;;;;2.08;1.40;;;21.80;47.30;;;;;;4992828;28;20037;-68
2022/05/01 12:10:31;;;;;;;3.25;1.55;;;21.80;47.40;;;;;;4983008;28;20099;-68
2022/05/01 12:12:57;;;;;;;2.28;1.45;;;21.80;47.50;;;;;;5004665;28;20037;-68
2022/05/01 12:15:24;;;;;;;4.32;1.67;;;21.80;47.60;;;;;;4986702;28;20772;-68
2022/05/01 12:17:50;;;;;;;2.33;1.40;;;21.80;47.70;;;;;;4989884;28;20114;-67
2022/05/01 12:20:16;;;;;;;1.92;1.30;;;21.80;47.80;;;;;;4990111;28;20033;-66
2022/05/01 12:22:43;;;;;;;3.63;1.30;;;21.80;47.90;;;;;;4995336;28;20055;-68
2022/05/01 12:25:11;;;;;;;3.80;1.30;;;21.80;47.90;;;;;;4991965;28;20030;-67
2022/05/01 12:27:41;;;;;;;2.42;1.35;;;21.80;48.00;;;;;;4989481;28;20350;-68
2022/05/01 12:30:09;;;;;;;1.98;1.33;;;21.80;48.00;;;;;;4988529;28;20030;-68
2022/05/01 12:32:36;;;;;;;5.40;1.52;;;21.80;48.20;;;;;;4993044;28;20502;-66
2022/05/01 12:35:05;;;;;;;2.95;1.40;;;21.80;48.20;;;;;;4991181;28;20466;-68
2022/05/01 12:37:35;;;;;;;5.05;1.60;;;21.80;48.40;;;;;;4993500;28;20029;-68
2022/05/01 12:40:04;;;;;;;2.05;1.17;;;21.90;48.70;;;;;;4994111;28;20366;-64
2022/05/01 12:45:46;;;;;;;2.40;1.25;;;21.90;48.70;;;;;;4993040;28;20041;-65
2022/05/01 12:48:14;;;;;;;2.92;1.40;;;21.90;48.70;;;;;;4989281;28;20037;-68
2022/05/01 12:50:41;;;;;;;3.00;1.65;;;21.90;48.50;;;;;;4992336;28;20022;-67
2022/05/01 12:53:23;;;;;;;3.35;1.20;;;21.90;48.50;;;;;;4993886;28;20029;-67
2022/05/01 12:55:49;;;;;;;2.30;1.38;;;21.90;48.40;;;;;;4994570;28;20076;-66
2022/05/01 12:58:25;;;;;;;3.10;1.40;;;21.90;48.40;;;;;;4995946;28;20108;-65
2022/05/01 13:00:50;;;;;;;2.40;1.42;;;21.90;48.50;;;;;;4993040;28;20096;-64
2022/05/01 13:03:16;;;;;;;3.55;1.50;;;21.90;48.50;;;;;;4991388;28;20073;-66
2022/05/01 13:05:53;;;;;;;2.42;1.30;;;21.90;48.50;;;;;;4993211;28;20045;-66
2022/05/01 13:08:20;;;;;;;2.88;1.30;;;22.00;48.40;;;;;;4995717;28;20124;-68
2022/05/01 13:11:25;;;;;;;2.15;1.23;;;22.00;48.40;;;;;;4994383;28;20033;-66
2022/05/01 13:13:51;;;;;;;2.60;1.50;;;22.00;48.30;;;;;;4993375;28;20036;-67
2022/05/01 13:16:22;;;;;;;3.22;1.40;;;22.00;48.30;;;;;;4992011;28;20092;-67
2022/05/01 13:18:49;;;;;;;3.65;1.80;;;22.00;48.20;;;;;;4997722;28;21485;-68
2022/05/01 13:21:15;;;;;;;3.20;1.40;;;22.00;48.20;;;;;;4987388;28;20069;-68